Time;durP1;ratioP1;P1;durP2;ratioP2;P2;SDS_P1;SDS_P2;PMS_P1;PMS_P2;Temp;Humidity;BMP_temperature;BMP_pressure;BME280_temperature;BME280_humidity;BME280_pressure;Samples;Min_cycle;Max_cycle;Signal;HPM_P1;HPM_P2
2023/05/05 00:01:01;;;;;;;11.77;6.93;;;;;;;17.76;62.60;101282.91;5043581;28;20055;-65
2023/05/05 00:03:28;;;;;;;18.60;7.75;;;;;;;17.77;63.56;101280.97;5050137;28;20546;-64
2023/05/05 00:05:57;;;;;;;15.07;8.20;;;;;;;17.76;64.53;101293.94;5048889;28;20040;-65
2023/05/05 00:08:25;;;;;;;11.55;7.90;;;;;;;17.76;65.22;101299.47;5052444;28;20053;-65
2023/05/05 00:10:54;;;;;;;14.88;7.38;;;;;;;17.75;65.68;101303.34;5034570;28;20132;-65
2023/05/05 00:13:22;;;;;;;11.13;7.13;;;;;;;17.75;66.56;101297.00;5049162;28;20041;-65
2023/05/05 00:15:52;;;;;;;14.20;7.30;;;;;;;17.75;66.89;101297.84;5039024;28;20056;-64
2023/05/05 00:18:20;;;;;;;18.88;8.43;;;;;;;17.74;68.53;101298.13;5054629;28;20404;-65
2023/05/05 00:20:48;;;;;;;18.27;8.98;;;;;;;17.74;70.26;101293.44;5054156;28;20051;-66
2023/05/05 00:23:16;;;;;;;16.35;8.40;;;;;;;17.73;70.92;101294.56;5054968;28;20469;-63
2023/05/05 00:25:44;;;;;;;15.35;8.70;;;;;;;17.73;72.36;101289.06;5066367;28;20072;-62
2023/05/05 00:28:13;;;;;;;17.63;8.98;;;;;;;17.72;73.10;101286.59;5078947;28;20096;-63
2023/05/05 00:30:40;;;;;;;16.08;8.50;;;;;;;17.72;74.22;101292.91;5074341;28;20506;-64
2023/05/05 00:33:10;;;;;;;17.88;8.70;;;;;;;17.70;75.11;101300.66;5058607;28;20064;-63
2023/05/05 00:35:37;;;;;;;12.63;8.77;;;;;;;17.66;77.51;101303.22;5072656;28;20092;-62
2023/05/05 00:38:06;;;;;;;12.90;9.38;;;;;;;17.64;78.88;101301.91;5068887;28;20481;-63
2023/05/05 00:40:35;;;;;;;18.67;8.68;;;;;;;17.63;79.33;101305.75;5051724;28;20076;-64
2023/05/05 00:43:02;;;;;;;13.88;9.05;;;;;;;17.61;80.18;101310.78;5055223;28;20077;-65
2023/05/05 00:45:30;;;;;;;14.40;9.60;;;;;;;17.58;81.26;101314.13;5056372;28;20057;-65
2023/05/05 00:47:59;;;;;;;16.65;9.18;;;;;;;17.56;81.46;101308.94;5057184;28;20059;-66
2023/05/05 00:50:29;;;;;;;12.52;9.00;;;;;;;17.54;82.18;101305.66;5054988;28;20052;-64
2023/05/05 00:53:04;;;;;;;15.63;10.07;;;;;;;17.52;83.04;101304.31;5022165;28;20052;-65
2023/05/05 00:55:33;;;;;;;15.27;9.55;;;;;;;17.49;83.77;101300.25;5054555;28;20576;-65
2023/05/05 00:58:03;;;;;;;15.73;10.00;;;;;;;17.48;84.04;101303.28;5036310;28;20110;-65
2023/05/05 01:00:30;;;;;;;16.75;10.00;;;;;;;17.45;84.15;101290.94;5076262;28;20036;-64
2023/05/05 01:03:00;;;;;;;18.15;10.15;;;;;;;17.42;84.35;101295.13;5062200;28;20648;-64
2023/05/05 01:05:52;;;;;;;14.32;10.60;;;;;;;17.40;84.81;101307.56;5055739;28;20058;-65
2023/05/05 01:08:42;;;;;;;13.20;8.93;;;;;;;17.37;84.64;101320.00;5052596;28;20040;-64
2023/05/05 01:11:25;;;;;;;14.10;10.27;;;;;;;17.36;84.72;101323.03;5058376;28;20433;-64
2023/05/05 01:14:12;;;;;;;17.33;10.80;;;;;;;17.34;84.74;101314.25;5058452;28;20056;-65
2023/05/05 01:16:56;;;;;;;17.40;10.70;;;;;;;17.33;85.03;101320.91;5049887;28;20041;-63
2023/05/05 01:19:28;;;;;;;15.93;10.13;;;;;;;17.32;85.61;101311.00;5038661;28;20114;-62
2023/05/05 01:21:59;;;;;;;17.33;10.18;;;;;;;17.29;85.58;101320.66;5035147;28;20045;-63
2023/05/05 01:24:36;;;;;;;14.82;10.15;;;;;;;17.27;85.79;101319.34;5031570;28;20063;-63
2023/05/05 01:27:33;;;;;;;15.50;10.40;;;;;;;17.27;85.21;101328.44;5058640;28;20045;-64
2023/05/05 01:30:35;;;;;;;16.80;10.25;;;;;;;17.23;85.42;101319.94;5052211;28;20124;-65
2023/05/05 01:33:05;;;;;;;13.30;10.02;;;;;;;17.20;85.69;101325.25;5035228;28;20745;-65
2023/05/05 01:35:42;;;;;;;14.15;9.98;;;;;;;17.17;85.71;101339.59;5035699;28;20049;-65
2023/05/05 01:38:22;;;;;;;13.80;9.30;;;;;;;17.14;85.72;101342.97;5019054;28;20049;-65
2023/05/05 01:41:11;;;;;;;14.18;10.55;;;;;;;17.12;85.87;101342.44;5024517;28;20439;-65
2023/05/05 01:43:39;;;;;;;17.38;10.05;;;;;;;17.09;86.08;101340.28;5050848;28;20076;-64
2023/05/05 01:46:08;;;;;;;16.38;9.63;;;;;;;17.08;86.06;101339.47;5054599;28;20053;-66
2023/05/05 01:48:36;;;;;;;13.80;9.48;;;;;;;17.07;85.63;101335.06;5036944;28;20493;-64
2023/05/05 01:51:07;;;;;;;13.50;8.80;;;;;;;17.04;85.96;101328.22;5049976;28;20163;-65
2023/05/05 01:53:36;;;;;;;12.50;9.18;;;;;;;17.04;85.51;101310.91;5033613;28;20144;-65
2023/05/05 01:56:04;;;;;;;12.77;9.15;;;;;;;17.04;85.55;101305.41;5032415;28;20123;-66
2023/05/05 01:58:32;;;;;;;13.13;9.32;;;;;;;17.02;85.68;101308.44;5043654;28;20049;-66
2023/05/05 02:01:00;;;;;;;16.80;9.45;;;;;;;17.02;85.33;101311.19;5012388;28;20076;-64
2023/05/05 02:03:29;;;;;;;13.10;8.77;;;;;;;17.02;85.20;101308.44;5053114;28;20083;-65
2023/05/05 02:05:57;;;;;;;11.95;8.98;;;;;;;17.02;85.00;101310.38;5036698;28;20034;-65
2023/05/05 02:08:25;;;;;;;14.70;8.65;;;;;;;17.00;84.90;101318.97;5054954;28;20049;-65
2023/05/05 02:10:54;;;;;;;13.38;8.43;;;;;;;16.97;85.10;101314.03;5035899;28;20041;-65
2023/05/05 02:13:24;;;;;;;14.05;8.00;;;;;;;16.96;85.46;101320.66;5033429;28;20050;-65
2023/05/05 02:15:53;;;;;;;11.15;8.38;;;;;;;16.94;85.43;101322.09;5020251;28;20037;-63
2023/05/05 02:18:21;;;;;;;13.60;8.60;;;;;;;16.91;85.45;101326.25;5033272;28;20050;-66
2023/05/05 02:20:50;;;;;;;13.88;8.68;;;;;;;16.88;85.73;101313.06;5037421;28;20099;-65
2023/05/05 02:23:18;;;;;;;12.02;8.40;;;;;;;16.86;85.93;101325.50;5051897;28;20087;-64
2023/05/05 02:25:49;;;;;;;10.68;7.97;;;;;;;16.86;85.88;101337.34;5034786;28;20044;-64
2023/05/05 02:28:29;;;;;;;12.05;7.95;;;;;;;16.86;85.75;101322.75;5053061;28;20493;-65
2023/05/05 02:30:59;;;;;;;11.30;7.80;;;;;;;16.85;85.56;101324.69;5054000;28;20041;-65
2023/05/05 02:33:29;;;;;;;13.77;8.10;;;;;;;16.84;85.06;101328.56;5049238;28;20461;-64
2023/05/05 02:35:57;;;;;;;11.77;8.32;;;;;;;16.83;85.41;101337.91;5029212;28;20408;-65
2023/05/05 02:38:28;;;;;;;14.25;8.07;;;;;;;16.83;85.37;101337.91;5056422;28;20052;-65
2023/05/05 02:41:01;;;;;;;10.93;7.55;;;;;;;16.82;85.12;101341.78;5073290;28;20049;-65
2023/05/05 02:43:31;;;;;;;12.38;8.07;;;;;;;16.77;85.27;101336.34;5051873;28;20501;-65
2023/05/05 02:45:59;;;;;;;12.75;8.00;;;;;;;16.73;84.97;101343.53;5041997;28;20067;-65
2023/05/05 02:48:28;;;;;;;11.95;7.30;;;;;;;16.69;85.19;101342.50;5062096;28;20115;-64
2023/05/05 02:50:59;;;;;;;13.35;8.20;;;;;;;16.67;85.36;101344.72;5021084;28;20049;-64
2023/05/05 02:53:32;;;;;;;12.85;7.82;;;;;;;16.63;85.58;101350.00;5036718;28;20128;-65
2023/05/05 02:56:13;;;;;;;12.27;7.68;;;;;;;16.62;85.70;101348.38;5046157;28;20040;-66
2023/05/05 02:59:08;;;;;;;11.50;7.28;;;;;;;16.60;85.41;101356.91;5061550;28;20053;-65
2023/05/05 03:01:36;;;;;;;9.80;6.35;;;;;;;16.59;85.39;101366.28;5054006;28;20067;-64
2023/05/05 03:04:15;;;;;;;11.18;6.88;;;;;;;16.56;85.53;101357.81;5036439;28;20072;-64
2023/05/05 03:06:50;;;;;;;11.15;6.55;;;;;;;16.56;85.34;101355.88;5020502;28;20466;-65
2023/05/05 03:09:28;;;;;;;10.07;6.43;;;;;;;16.55;85.33;101358.94;5034157;28;20045;-66
2023/05/05 03:12:04;;;;;;;14.48;6.60;;;;;;;16.54;85.13;101357.28;5032870;28;20046;-65
2023/05/05 03:14:42;;;;;;;8.52;5.90;;;;;;;16.52;84.77;101354.81;5039509;28;20044;-65
2023/05/05 03:17:14;;;;;;;10.18;5.80;;;;;;;16.50;84.83;101357.06;5011229;28;20387;-64
2023/05/05 03:19:42;;;;;;;7.35;5.30;;;;;;;16.49;84.37;101365.59;5049243;28;20106;-64
2023/05/05 03:22:10;;;;;;;8.75;5.53;;;;;;;16.47;84.41;101352.13;5054522;28;20563;-64
2023/05/05 03:24:43;;;;;;;9.38;5.20;;;;;;;16.45;84.38;101353.53;5040518;28;20107;-65
2023/05/05 03:27:12;;;;;;;13.20;6.35;;;;;;;16.44;84.12;101352.72;5054737;28;20049;-65
2023/05/05 03:29:39;;;;;;;9.60;4.85;;;;;;;16.41;83.95;101364.31;5040034;28;20052;-64
2023/05/05 03:32:11;;;;;;;9.23;4.57;;;;;;;16.37;83.45;101363.25;5051370;28;20045;-64
2023/05/05 03:34:40;;;;;;;9.82;4.78;;;;;;;16.33;83.63;101367.72;5058775;28;20036;-65
2023/05/05 03:37:08;;;;;;;8.27;4.75;;;;;;;16.30;83.51;101368.31;5057960;28;20059;-65
2023/05/05 03:39:38;;;;;;;7.70;4.30;;;;;;;16.26;83.65;101370.84;5055944;28;20045;-65
2023/05/05 03:42:06;;;;;;;10.18;4.20;;;;;;;16.25;83.56;101384.88;5039704;28;20087;-65
2023/05/05 03:44:35;;;;;;;7.78;4.32;;;;;;;16.25;83.43;101382.13;5039776;28;20052;-66
2023/05/05 03:47:03;;;;;;;8.60;4.13;;;;;;;16.23;83.55;101381.59;5056147;28;20047;-65
2023/05/05 03:49:33;;;;;;;5.88;3.33;;;;;;;16.23;83.04;101378.84;5054729;28;20047;-65
2023/05/05 03:52:02;;;;;;;12.65;3.55;;;;;;;16.22;83.40;101385.47;5055083;28;20052;-65
2023/05/05 03:54:30;;;;;;;8.75;3.65;;;;;;;16.19;83.35;101373.94;5038651;28;20091;-65
2023/05/05 03:56:58;;;;;;;7.25;3.40;;;;;;;16.18;83.49;101376.97;5034668;28;20046;-65
2023/05/05 03:59:26;;;;;;;6.72;3.60;;;;;;;16.17;83.39;101376.16;5022315;28;20049;-65
2023/05/05 04:01:54;;;;;;;5.90;3.40;;;;;;;16.17;83.37;101386.34;5036453;28;20037;-64
2023/05/05 04:04:22;;;;;;;9.05;3.50;;;;;;;16.17;83.04;101391.81;5034218;28;20049;-65
2023/05/05 04:06:49;;;;;;;6.18;3.50;;;;;;;16.15;83.16;101394.84;5056324;28;20060;-65
2023/05/05 04:09:17;;;;;;;7.68;3.83;;;;;;;16.12;83.15;101400.94;5054940;28;20083;-65
2023/05/05 04:11:45;;;;;;;9.60;3.47;;;;;;;16.12;83.30;101397.38;5039707;28;20549;-64
2023/05/05 04:14:13;;;;;;;8.45;3.65;;;;;;;16.09;83.35;101397.94;5059016;28;20056;-65
2023/05/05 04:16:41;;;;;;;9.70;3.70;;;;;;;16.01;84.46;101406.84;5040826;28;20110;-66
2023/05/05 04:19:11;;;;;;;7.53;3.63;;;;;;;15.96;84.52;101402.22;5057226;28;20047;-66
2023/05/05 04:21:39;;;;;;;10.40;3.95;;;;;;;15.96;84.70;101413.19;5059915;28;20041;-65
2023/05/05 04:24:08;;;;;;;9.75;3.80;;;;;;;15.93;85.24;101411.03;5072328;28;20045;-63
2023/05/05 04:26:36;;;;;;;9.25;3.90;;;;;;;15.93;85.02;101408.28;5052790;28;20049;-64
2023/05/05 04:29:04;;;;;;;6.15;3.70;;;;;;;15.95;85.22;101412.38;5030782;28;20045;-64
2023/05/05 04:31:32;;;;;;;8.63;4.30;;;;;;;15.98;84.57;101411.81;5037305;28;20046;-64
2023/05/05 04:33:59;;;;;;;8.95;4.25;;;;;;;16.02;84.99;101417.56;5053610;28;20408;-65
2023/05/05 04:36:27;;;;;;;8.60;4.75;;;;;;;16.04;84.66;101425.50;5045591;28;20490;-67
2023/05/05 04:38:55;;;;;;;7.07;4.40;;;;;;;16.04;85.07;101420.00;5064768;28;20129;-64
2023/05/05 04:41:23;;;;;;;7.57;4.30;;;;;;;16.03;84.99;101419.19;5055211;28;20061;-64
2023/05/05 04:43:54;;;;;;;11.25;4.45;;;;;;;16.02;84.86;101420.31;5018823;28;20041;-64
2023/05/05 04:46:23;;;;;;;9.48;4.65;;;;;;;16.03;84.75;101424.69;5018246;28;20468;-64
2023/05/05 04:48:51;;;;;;;8.43;4.95;;;;;;;16.01;85.13;101421.41;5022972;28;20562;-67
2023/05/05 04:51:19;;;;;;;9.43;5.28;;;;;;;16.00;85.06;101425.25;5057874;28;20087;-66
2023/05/05 04:53:47;;;;;;;9.95;4.90;;;;;;;16.00;85.29;101422.50;5054758;28;20104;-65
2023/05/05 04:56:14;;;;;;;13.07;6.25;;;;;;;15.98;85.20;101422.78;5054862;28;20544;-65
2023/05/05 04:58:42;;;;;;;11.38;5.78;;;;;;;15.99;85.62;101429.09;5040573;28;20064;-64
2023/05/05 05:01:10;;;;;;;10.05;6.05;;;;;;;15.96;85.98;101424.19;5054947;28;20045;-65
2023/05/05 05:03:38;;;;;;;9.63;6.18;;;;;;;15.95;86.25;101430.81;5036608;28;20041;-64
2023/05/05 05:06:08;;;;;;;11.30;6.55;;;;;;;15.92;86.64;101428.63;5036303;28;20144;-65
2023/05/05 05:08:36;;;;;;;10.20;6.53;;;;;;;15.89;86.67;101429.22;5035948;28;20049;-64
2023/05/05 05:11:03;;;;;;;13.98;7.03;;;;;;;15.89;86.95;101423.72;5034935;28;20094;-64
2023/05/05 05:13:31;;;;;;;12.23;7.22;;;;;;;15.87;86.94;101425.94;5035104;28;20122;-65
2023/05/05 05:16:00;;;;;;;12.82;7.57;;;;;;;15.87;87.53;101428.66;4696596;28;10000273;-65
2023/05/05 05:18:28;;;;;;;11.75;7.40;;;;;;;15.87;87.97;101423.19;5032286;28;20053;-64
2023/05/05 05:20:56;;;;;;;10.30;6.93;;;;;;;15.86;87.89;101430.59;5014299;28;20057;-66
2023/05/05 05:23:24;;;;;;;12.90;7.80;;;;;;;15.86;88.06;101429.78;5030794;28;20049;-66
2023/05/05 05:25:52;;;;;;;12.15;7.18;;;;;;;15.86;88.07;101429.78;5031662;28;20049;-66
2023/05/05 05:28:21;;;;;;;13.23;8.02;;;;;;;15.86;88.15;101424.31;5044045;28;20059;-65
2023/05/05 05:30:53;;;;;;;13.85;7.72;;;;;;;15.86;88.19;101429.78;5033521;28;20049;-65
2023/05/05 05:33:21;;;;;;;14.70;7.70;;;;;;;15.86;88.49;101435.28;5028147;28;20054;-65
2023/05/05 05:35:50;;;;;;;11.93;7.72;;;;;;;15.89;88.47;101429.22;5051583;28;20428;-65
2023/05/05 05:38:20;;;;;;;12.05;8.07;;;;;;;15.89;88.52;101430.03;5030103;28;20045;-65
2023/05/05 05:40:50;;;;;;;12.77;8.73;;;;;;;15.90;88.64;101428.94;5042138;28;20070;-65
2023/05/05 05:43:18;;;;;;;13.80;9.20;;;;;;;15.92;88.06;101428.63;5021471;28;20524;-64
2023/05/05 05:45:46;;;;;;;12.63;8.77;;;;;;;15.92;88.41;101440.47;5051131;28;20057;-65
2023/05/05 05:48:15;;;;;;;11.73;7.95;;;;;;;15.94;88.41;101437.41;5021545;28;20155;-67
2023/05/05 05:50:42;;;;;;;11.48;8.38;;;;;;;15.95;88.61;101441.81;5049150;28;20505;-65
2023/05/05 05:53:10;;;;;;;14.18;8.90;;;;;;;15.95;88.88;101442.63;5029787;28;20172;-66
2023/05/05 05:55:39;;;;;;;13.38;8.52;;;;;;;15.95;89.02;101445.38;5041843;28;20072;-66
2023/05/05 05:58:07;;;;;;;14.30;9.45;;;;;;;15.95;89.35;101445.38;5030697;28;20060;-66
2023/05/05 06:00:34;;;;;;;14.68;9.20;;;;;;;15.95;89.47;101441.81;5013486;28;20160;-66
2023/05/05 06:03:06;;;;;;;15.48;9.40;;;;;;;15.95;89.56;101450.06;5047780;28;20673;-65
2023/05/05 06:05:37;;;;;;;17.30;9.73;;;;;;;15.94;89.63;101445.66;5032924;28;20537;-65
2023/05/05 06:08:06;;;;;;;15.23;10.05;;;;;;;15.92;90.24;101453.34;5016821;28;20565;-66
2023/05/05 06:10:39;;;;;;;15.57;9.80;;;;;;;15.90;90.61;101470.16;5050065;28;20058;-66
2023/05/05 06:13:11;;;;;;;15.88;10.30;;;;;;;15.92;91.34;101476.19;5054835;28;20119;-67
2023/05/05 06:15:43;;;;;;;19.35;10.95;;;;;;;15.94;91.77;101481.38;5052713;28;20056;-66
2023/05/05 06:18:12;;;;;;;16.48;11.38;;;;;;;15.93;92.55;101488.00;5038234;28;20049;-65
2023/05/05 06:20:42;;;;;;;14.15;10.27;;;;;;;15.96;92.36;101484.66;5050875;28;20049;-67
2023/05/05 06:23:12;;;;;;;19.83;12.32;;;;;;;15.99;92.88;101484.06;5053067;28;20041;-66
2023/05/05 06:25:46;;;;;;;22.50;12.73;;;;;;;16.02;93.20;101482.69;5052966;28;20041;-66
2023/05/05 06:28:14;;;;;;;16.80;11.40;;;;;;;16.04;93.13;101488.72;5053311;28;20048;-66
2023/05/05 06:30:42;;;;;;;19.88;12.20;;;;;;;16.06;93.90;101490.06;5055501;28;20073;-67
2023/05/05 06:33:10;;;;;;;19.27;10.82;;;;;;;16.09;93.50;101488.66;5053058;28;20571;-67
2023/05/05 06:35:37;;;;;;;15.75;10.32;;;;;;;16.11;93.54;101497.44;5054172;28;20056;-66
2023/05/05 06:38:05;;;;;;;17.45;11.90;;;;;;;16.13;93.62;101496.03;5054019;28;20490;-66
2023/05/05 06:40:33;;;;;;;16.15;11.40;;;;;;;16.17;93.69;101502.63;5053076;28;20049;-66
2023/05/05 06:43:01;;;;;;;17.38;10.70;;;;;;;16.19;93.69;101502.34;5052525;28;20044;-66
2023/05/05 06:45:34;;;;;;;16.10;9.80;;;;;;;16.23;94.08;101505.31;5037808;28;20097;-66
2023/05/05 06:48:03;;;;;;;16.58;11.52;;;;;;;16.25;94.24;101505.84;5054330;28;20457;-66
2023/05/05 06:50:30;;;;;;;15.77;10.02;;;;;;;16.27;93.84;101509.13;5060639;28;20071;-66
2023/05/05 06:52:58;;;;;;;15.05;9.60;;;;;;;16.26;94.40;101504.72;5054428;28;20049;-66
2023/05/05 06:55:26;;;;;;;15.48;11.05;;;;;;;16.23;94.99;101502.56;5062368;28;20094;-65
2023/05/05 06:57:54;;;;;;;14.68;9.85;;;;;;;16.23;94.76;101505.31;5075580;28;20075;-65
2023/05/05 07:00:22;;;;;;;16.73;10.15;;;;;;;16.23;95.36;101502.56;5077693;28;20045;-66
2023/05/05 07:02:50;;;;;;;14.50;8.95;;;;;;;16.26;95.04;101501.97;5062415;28;20045;-65
2023/05/05 07:05:18;;;;;;;18.73;10.57;;;;;;;16.29;95.49;101506.91;5056944;28;20073;-65
2023/05/05 07:07:56;;;;;;;16.30;9.85;;;;;;;16.32;95.75;101512.66;5056710;28;20084;-65
2023/05/05 07:10:23;;;;;;;15.63;9.43;;;;;;;16.34;95.81;101509.63;5052790;28;20434;-65
2023/05/05 07:12:53;;;;;;;15.70;8.75;;;;;;;16.35;95.12;101503.00;5035110;28;20091;-66
2023/05/05 07:15:21;;;;;;;15.48;8.18;;;;;;;16.37;94.38;101509.84;5052498;28;20091;-66
2023/05/05 07:17:55;;;;;;;17.38;11.43;;;;;;;16.38;94.78;101510.69;5053484;28;20053;-65
2023/05/05 07:20:24;;;;;;;19.73;11.10;;;;;;;16.38;94.56;101513.44;5033597;28;20041;-66
2023/05/05 07:22:51;;;;;;;18.55;10.45;;;;;;;16.37;94.52;101515.34;5033993;28;20046;-66
2023/05/05 07:25:19;;;;;;;15.50;9.98;;;;;;;16.37;94.59;101518.09;5053126;28;20060;-65
2023/05/05 07:27:47;;;;;;;14.88;9.75;;;;;;;16.40;92.97;101516.69;5053720;28;20037;-67
2023/05/05 07:30:15;;;;;;;16.15;10.55;;;;;;;16.44;92.46;101523.25;5052478;28;20072;-66
2023/05/05 07:32:45;;;;;;;15.85;9.65;;;;;;;16.47;92.34;101519.09;5036401;28;20049;-65
2023/05/05 07:35:13;;;;;;;14.90;9.43;;;;;;;16.48;92.34;101518.81;5053871;28;20045;-65
2023/05/05 07:37:41;;;;;;;13.07;8.85;;;;;;;16.49;92.78;101514.97;5038285;28;20045;-64
2023/05/05 07:40:09;;;;;;;13.43;9.65;;;;;;;16.52;92.20;101524.56;5073766;28;20073;-66
2023/05/05 07:42:37;;;;;;;12.68;8.68;;;;;;;16.55;91.69;101524.00;5072233;28;20047;-66
2023/05/05 07:45:06;;;;;;;13.55;9.50;;;;;;;16.58;90.70;101528.91;5074011;28;20056;-64
2023/05/05 07:47:33;;;;;;;16.40;9.38;;;;;;;16.65;90.27;101525.81;5047618;28;20041;-65
2023/05/05 07:50:01;;;;;;;17.20;9.13;;;;;;;16.67;88.62;101509.81;5056338;28;20598;-64
2023/05/05 07:52:29;;;;;;;14.43;7.88;;;;;;;16.71;88.60;101516.38;5053300;28;20053;-65
2023/05/05 07:55:16;;;;;;;14.02;8.68;;;;;;;16.71;88.68;101517.19;5053320;28;20052;-65
2023/05/05 07:57:44;;;;;;;14.52;8.77;;;;;;;16.72;88.35;101513.34;5053552;28;20501;-65
2023/05/05 08:00:13;;;;;;;12.68;7.80;;;;;;;16.76;87.32;101513.56;5052750;28;20108;-63
2023/05/05 08:02:42;;;;;;;12.52;8.57;;;;;;;16.77;87.48;101515.22;5036513;28;20052;-64
2023/05/05 08:05:11;;;;;;;14.40;8.48;;;;;;;16.78;87.54;101506.69;5033325;28;20049;-64
2023/05/05 08:07:40;;;;;;;13.13;8.73;;;;;;;16.83;87.43;101508.56;5051632;28;20072;-64
2023/05/05 08:10:11;;;;;;;18.48;8.13;;;;;;;16.89;86.83;101515.66;5041461;28;20059;-64
2023/05/05 08:12:39;;;;;;;17.50;8.30;;;;;;;16.93;84.98;101507.63;5049197;28;20056;-65
2023/05/05 08:15:07;;;;;;;12.65;7.70;;;;;;;16.96;84.50;101507.84;5056411;28;20049;-64
2023/05/05 08:17:47;;;;;;;13.27;7.97;;;;;;;17.02;84.70;101506.66;5060860;28;20035;-66
2023/05/05 08:20:16;;;;;;;10.63;6.38;;;;;;;17.06;84.14;101512.41;5084566;28;20500;-66
2023/05/05 08:22:45;;;;;;;15.60;7.03;;;;;;;17.09;83.91;101505.50;5074114;28;20049;-65
2023/05/05 08:25:13;;;;;;;11.95;7.32;;;;;;;17.11;82.75;101506.03;5061905;28;20068;-62
2023/05/05 08:27:42;;;;;;;13.40;7.22;;;;;;;17.12;82.50;101505.72;5071212;28;20094;-65
2023/05/05 08:30:10;;;;;;;12.38;7.28;;;;;;;17.16;82.89;101508.72;5062988;28;20057;-64
2023/05/05 08:32:37;;;;;;;10.93;7.15;;;;;;;17.18;82.34;101503.72;5068019;28;20083;-65
2023/05/05 08:35:06;;;;;;;10.55;6.10;;;;;;;17.23;81.06;101515.50;5059680;28;20493;-66
2023/05/05 08:37:35;;;;;;;9.98;5.95;;;;;;;17.29;80.47;101505.22;5039143;28;20127;-66
2023/05/05 08:40:03;;;;;;;13.25;5.38;;;;;;;17.36;80.30;101519.44;5038903;28;20053;-67
2023/05/05 08:42:31;;;;;;;8.32;5.10;;;;;;;17.40;80.20;101512.22;5063084;28;20060;-66
2023/05/05 08:45:06;;;;;;;11.15;6.03;;;;;;;17.43;78.89;101508.88;5075533;28;20067;-66
2023/05/05 08:47:36;;;;;;;12.65;6.00;;;;;;;17.48;78.64;101513.50;5058735;28;20049;-65
2023/05/05 08:50:04;;;;;;;12.25;5.32;;;;;;;17.49;77.51;101515.16;5075515;28;20048;-65
2023/05/05 08:52:45;;;;;;;8.13;4.53;;;;;;;17.51;77.96;101523.09;5058833;28;20050;-65
2023/05/05 08:55:25;;;;;;;10.35;5.32;;;;;;;17.51;78.51;101515.66;5051248;28;20045;-66
2023/05/05 08:57:57;;;;;;;10.88;5.95;;;;;;;17.53;80.07;101520.88;5065709;28;20037;-65
2023/05/05 09:00:27;;;;;;;10.77;5.95;;;;;;;17.53;80.16;101526.38;5059272;28;20463;-65
2023/05/05 09:02:59;;;;;;;12.13;6.25;;;;;;;17.53;80.48;101531.88;5060133;28;20124;-65
2023/05/05 09:05:27;;;;;;;9.75;5.03;;;;;;;17.53;81.14;101526.38;5035070;28;20042;-65
2023/05/05 09:07:54;;;;;;;10.15;4.97;;;;;;;17.55;81.27;101524.16;5047990;28;20055;-65
2023/05/05 09:10:22;;;;;;;10.75;4.72;;;;;;;17.57;81.22;101527.44;5055448;28;20048;-66
2023/05/05 09:12:51;;;;;;;12.13;5.15;;;;;;;17.57;81.03;101527.44;5036283;28;20041;-66
2023/05/05 09:15:19;;;;;;;10.02;4.88;;;;;;;17.56;81.24;101515.59;5072277;28;20048;-63
2023/05/05 09:17:46;;;;;;;10.75;4.25;;;;;;;17.57;81.34;101527.44;5054716;28;20472;-65
2023/05/05 09:20:15;;;;;;;11.88;5.00;;;;;;;17.58;81.29;101523.53;5056834;28;20076;-65
2023/05/05 09:22:47;;;;;;;12.15;5.40;;;;;;;17.57;81.01;101517.22;5054595;28;20045;-66
2023/05/05 09:25:16;;;;;;;10.43;5.63;;;;;;;17.58;80.94;101523.53;5056540;28;20041;-66
2023/05/05 09:27:48;;;;;;;14.98;6.40;;;;;;;17.60;81.11;101526.81;5035480;28;20401;-66
2023/05/05 09:30:23;;;;;;;11.20;5.90;;;;;;;17.63;80.91;101518.78;5039096;28;20045;-65
2023/05/05 09:32:53;;;;;;;9.82;5.10;;;;;;;17.65;80.92;101529.50;5052753;28;20041;-66
2023/05/05 09:35:22;;;;;;;8.77;4.90;;;;;;;17.69;80.70;101527.78;5053832;28;20057;-64
2023/05/05 09:37:50;;;;;;;11.80;5.20;;;;;;;17.72;80.56;101534.63;5056121;28;20045;-66
2023/05/05 09:40:18;;;;;;;11.32;5.40;;;;;;;17.72;80.39;101527.19;5056964;28;20052;-66
2023/05/05 09:42:46;;;;;;;10.07;4.65;;;;;;;17.75;80.51;101531.28;5057134;28;20124;-64
2023/05/05 09:45:17;;;;;;;9.77;5.10;;;;;;;17.76;80.16;101525.47;5054863;28;20477;-66
2023/05/05 09:47:45;;;;;;;8.90;4.38;;;;;;;17.78;79.68;101533.47;5039067;28;20127;-66
2023/05/05 09:50:17;;;;;;;8.55;4.15;;;;;;;17.75;79.47;101525.75;5057425;28;20045;-65
2023/05/05 09:52:58;;;;;;;9.20;3.67;;;;;;;17.74;79.68;101522.19;5036171;28;20042;-66
2023/05/05 09:55:27;;;;;;;11.68;4.40;;;;;;;17.76;81.55;101524.66;5047753;28;20051;-66
2023/05/05 09:57:54;;;;;;;10.15;4.45;;;;;;;17.81;79.72;101522.66;5036540;28;20037;-66
2023/05/05 10:00:32;;;;;;;7.15;3.10;;;;;;;17.78;76.21;101516.91;5047213;28;20073;-65
2023/05/05 10:03:02;;;;;;;9.23;3.47;;;;;;;17.75;75.90;101517.50;5039848;28;20045;-63
2023/05/05 10:05:30;;;;;;;6.35;3.00;;;;;;;17.74;75.33;101516.69;5065963;28;20057;-65
2023/05/05 10:08:12;;;;;;;5.35;3.03;;;;;;;17.73;75.05;101515.06;5037092;28;20049;-64
2023/05/05 10:10:48;;;;;;;9.98;3.40;;;;;;;17.73;74.80;101515.06;5052707;28;20049;-63
2023/05/05 10:13:19;;;;;;;6.55;3.28;;;;;;;17.73;75.14;101508.72;5054732;28;20119;-62
2023/05/05 10:15:50;;;;;;;8.77;3.50;;;;;;;17.73;75.16;101505.97;5035079;28;20049;-65
2023/05/05 10:18:28;;;;;;;7.50;3.47;;;;;;;17.73;74.93;101506.78;5053119;28;20565;-63
2023/05/05 10:21:02;;;;;;;6.05;3.28;;;;;;;17.75;74.39;101501.81;5052336;28;20508;-67
2023/05/05 10:23:38;;;;;;;6.97;3.70;;;;;;;17.74;74.02;101508.41;5037303;28;20106;-64
2023/05/05 10:26:07;;;;;;;9.48;3.50;;;;;;;17.75;74.97;101500.97;5053078;28;20114;-64
2023/05/05 10:28:49;;;;;;;13.02;3.85;;;;;;;17.77;76.16;101499.53;5021228;28;20044;-65
2023/05/05 10:31:23;;;;;;;9.13;3.60;;;;;;;17.81;76.69;101499.81;5012147;28;20053;-65
2023/05/05 10:34:02;;;;;;;11.05;4.13;;;;;;;17.82;77.66;101506.94;5039159;28;20045;-64
2023/05/05 10:36:30;;;;;;;8.43;3.67;;;;;;;17.82;78.84;101496.75;5052231;28;20063;-65
2023/05/05 10:38:59;;;;;;;10.48;4.40;;;;;;;17.82;79.05;101502.28;5049879;28;20540;-65
2023/05/05 10:41:30;;;;;;;41.28;22.45;;;;;;;17.84;78.56;101493.69;5058674;28;20115;-66
2023/05/05 10:43:58;;;;;;;10.15;4.65;;;;;;;17.84;77.86;101488.97;5073025;28;20108;-65
2023/05/05 10:46:30;;;;;;;11.60;4.70;;;;;;;17.83;78.34;101503.09;5055935;28;20057;-63
2023/05/05 10:49:04;;;;;;;36.97;20.50;;;;;;;17.81;78.96;101495.09;5057899;28;20406;-64
2023/05/05 10:52:03;;;;;;;11.65;5.63;;;;;;;17.81;79.75;101503.38;5054344;28;20043;-65
2023/05/05 10:55:11;;;;;;;10.90;4.75;;;;;;;17.79;80.50;101496.50;5039051;28;20048;-65
2023/05/05 10:57:43;;;;;;;7.82;3.60;;;;;;;17.76;81.99;101506.19;5013760;28;20099;-65
2023/05/05 11:00:38;;;;;;;7.88;3.67;;;;;;;17.70;84.71;101504.59;5017393;28;20460;-65
2023/05/05 11:03:18;;;;;;;13.40;4.88;;;;;;;17.58;91.50;101515.28;5051431;28;20060;-66
2023/05/05 11:06:08;;;;;;;11.73;5.05;;;;;;;17.42;96.95;101514.69;5056638;28;20060;-65
2023/05/05 11:08:55;;;;;;;27.98;15.38;;;;;;;17.25;100.00;101534.47;5074667;28;20400;-63
2023/05/05 11:12:00;;;;;;;18.33;7.38;;;;;;;17.02;100.00;101556.22;5056408;28;20049;-64
2023/05/05 11:14:28;;;;;;;15.38;6.78;;;;;;;16.90;100.00;101555.81;5033602;28;20049;-65
2023/05/05 11:16:55;;;;;;;15.20;6.25;;;;;;;16.84;100.00;101548.75;5033185;28;20111;-63
2023/05/05 11:19:41;;;;;;;12.40;5.63;;;;;;;16.73;100.00;101552.69;5033823;28;20176;-65
2023/05/05 11:22:10;;;;;;;11.23;3.50;;;;;;;16.32;100.00;101553.09;5044851;28;20507;-64
2023/05/05 11:24:41;;;;;;;7.63;2.97;;;;;;;16.04;100.00;101558.25;5039634;28;20055;-63
2023/05/05 11:27:09;;;;;;;4.72;2.30;;;;;;;15.79;100.00;101551.03;5040058;28;20076;-63
2023/05/05 11:30:08;;;;;;;6.57;2.50;;;;;;;15.71;100.00;101560.69;5053906;28;20044;-64
2023/05/05 11:32:36;;;;;;;32.13;14.57;;;;;;;15.79;100.00;101552.97;5052754;28;20064;-64
2023/05/05 11:35:06;;;;;;;8.55;2.40;;;;;;;15.74;100.00;101551.88;5053414;28;20672;-63